createdAt,value
2019-05-14T00:01:12.144Z,3.33
2019-05-14T00:03:41.494Z,3.17
2019-05-14T00:06:11.508Z,3.07
2019-05-14T00:08:41.861Z,2.73
2019-05-14T00:11:12.983Z,3.17
2019-05-14T00:13:42.472Z,3.00
2019-05-14T00:16:11.945Z,3.20
2019-05-14T00:18:41.990Z,2.67
2019-05-14T00:21:12.250Z,2.60
2019-05-14T00:23:42.255Z,3.57
2019-05-14T00:26:12.179Z,2.87
2019-05-14T00:28:42.369Z,3.10
2019-05-14T00:31:12.213Z,3.10
2019-05-14T00:33:42.034Z,3.33
2019-05-14T00:36:11.674Z,3.23
2019-05-14T00:38:41.952Z,3.00
2019-05-14T00:41:11.534Z,2.90
2019-05-14T00:43:41.639Z,3.20
2019-05-14T00:46:11.847Z,2.93
2019-05-14T00:48:42.194Z,2.70
2019-05-14T00:51:12.484Z,2.70
2019-05-14T00:53:42.270Z,3.07
2019-05-14T00:56:11.542Z,3.17
2019-05-14T01:01:35.296Z,3.00
2019-05-14T01:04:07.187Z,2.73
2019-05-14T01:06:36.493Z,2.90
2019-05-14T01:09:07.380Z,2.93
2019-05-14T01:11:36.507Z,3.20
2019-05-14T01:14:05.724Z,2.90
2019-05-14T01:16:34.908Z,2.57
2019-05-14T01:19:04.046Z,3.13
2019-05-14T01:21:33.185Z,3.17
2019-05-14T01:24:02.447Z,3.40
2019-05-14T01:26:31.629Z,3.00
2019-05-14T01:29:01.428Z,3.20
2019-05-14T01:31:31.461Z,3.30
2019-05-14T01:34:02.220Z,3.27
2019-05-14T01:36:32.161Z,2.97
2019-05-14T01:39:01.927Z,3.10
2019-05-14T01:41:31.784Z,2.93
2019-05-14T01:44:01.922Z,3.40
2019-05-14T01:46:31.765Z,2.90
2019-05-14T01:49:01.719Z,3.20
2019-05-14T01:51:31.699Z,3.27
2019-05-14T01:54:01.615Z,3.00
2019-05-14T01:56:32.026Z,3.33
2019-05-14T01:59:01.916Z,3.30
2019-05-14T02:01:31.631Z,3.53
2019-05-14T02:04:02.357Z,3.40
2019-05-14T02:06:32.350Z,3.67
2019-05-14T02:09:02.122Z,3.40
2019-05-14T02:11:32.223Z,3.50
2019-05-14T02:14:02.409Z,3.90
2019-05-14T02:16:31.731Z,3.93
2019-05-14T02:19:01.383Z,4.23
2019-05-14T02:21:31.683Z,3.83
2019-05-14T02:24:01.984Z,3.33
2019-05-14T02:26:31.826Z,3.60
2019-05-14T02:29:01.994Z,3.50
2019-05-14T02:31:31.728Z,3.87
2019-05-14T02:34:00.919Z,3.73
2019-05-14T02:36:30.889Z,3.83
2019-05-14T02:39:00.994Z,3.37
2019-05-14T02:41:30.243Z,3.73
2019-05-14T02:43:59.614Z,3.93
2019-05-14T02:46:29.722Z,3.80
2019-05-14T02:48:59.606Z,3.33
2019-05-14T02:51:30.025Z,4.10
2019-05-14T02:53:59.838Z,3.37
2019-05-14T02:56:29.554Z,4.10
2019-05-14T02:59:00.009Z,4.23
2019-05-14T03:01:30.299Z,3.90
2019-05-14T03:04:01.130Z,4.70
2019-05-14T03:06:30.366Z,4.23
2019-05-14T03:09:01.153Z,3.63
2019-05-14T03:11:30.407Z,3.63
2019-05-14T03:14:00.030Z,3.43
2019-05-14T03:16:35.280Z,3.63
2019-05-14T03:19:00.735Z,3.20
2019-05-14T03:21:30.597Z,3.17
2019-05-14T03:24:00.967Z,3.87
2019-05-14T03:26:30.374Z,3.97
2019-05-14T03:29:00.195Z,3.63
2019-05-14T03:31:33.037Z,3.97
2019-05-14T03:34:12.660Z,3.93
2019-05-14T03:36:44.206Z,4.07
2019-05-14T03:39:15.343Z,4.50
2019-05-14T03:41:49.939Z,4.00
2019-05-14T03:44:19.946Z,4.13
2019-05-14T03:46:55.445Z,3.90
2019-05-14T03:49:23.210Z,4.60
2019-05-14T03:51:52.552Z,4.87
2019-05-14T03:54:21.754Z,3.80
2019-05-14T03:56:51.206Z,3.80
2019-05-14T03:59:20.409Z,4.07
2019-05-14T04:01:51.030Z,4.13
2019-05-14T04:04:20.703Z,3.20
2019-05-14T04:06:54.012Z,4.13
2019-05-14T04:09:24.679Z,4.60
2019-05-14T04:11:59.246Z,3.53
2019-05-14T04:14:30.010Z,4.00
2019-05-14T04:17:09.740Z,3.57
2019-05-14T04:19:39.467Z,4.27
2019-05-14T04:22:10.068Z,3.63
2019-05-14T04:24:42.187Z,3.90
2019-05-14T04:27:13.626Z,3.70
2019-05-14T04:29:43.406Z,3.83
2019-05-14T04:32:14.772Z,4.90
2019-05-14T04:34:44.125Z,3.43
2019-05-14T04:37:13.554Z,4.10
2019-05-14T04:39:42.969Z,4.20
2019-05-14T04:42:12.101Z,3.90
2019-05-14T04:44:41.240Z,4.03
2019-05-14T04:47:27.677Z,4.90
2019-05-14T04:49:41.247Z,4.13
2019-05-14T04:52:10.490Z,3.53
2019-05-14T04:54:39.879Z,3.93
2019-05-14T04:57:10.232Z,4.57
2019-05-14T04:59:40.272Z,3.50
2019-05-14T05:02:10.100Z,3.70
2019-05-14T05:04:41.137Z,4.17
2019-05-14T05:07:10.435Z,3.80
2019-05-14T05:09:40.231Z,3.50
2019-05-14T05:12:10.332Z,3.97
2019-05-14T05:14:39.523Z,3.87
2019-05-14T05:17:09.332Z,3.83
2019-05-14T05:19:44.309Z,3.90
2019-05-14T05:22:10.290Z,3.30
2019-05-14T05:24:39.618Z,4.17
2019-05-14T05:27:09.439Z,3.17
2019-05-14T05:29:39.409Z,3.67
2019-05-14T05:32:09.459Z,4.40
2019-05-14T05:34:39.083Z,3.60
2019-05-14T05:37:09.081Z,3.40
2019-05-14T05:39:38.868Z,3.50
2019-05-14T05:42:10.287Z,4.23
2019-05-14T05:44:39.779Z,4.00
2019-05-14T05:47:09.459Z,3.60
2019-05-14T05:49:39.170Z,3.63
2019-05-14T05:52:08.954Z,3.43
2019-05-14T05:54:38.521Z,3.33
2019-05-14T05:57:09.227Z,3.33
2019-05-14T05:59:39.437Z,3.40
2019-05-14T06:02:09.525Z,2.90
2019-05-14T06:04:39.654Z,2.90
2019-05-14T06:07:09.028Z,3.07
2019-05-14T06:09:38.411Z,2.57
2019-05-14T06:12:08.862Z,3.20
2019-05-14T06:14:38.533Z,2.80
2019-05-14T06:17:08.516Z,2.93
2019-05-14T06:19:38.416Z,2.97
2019-05-14T06:22:09.834Z,3.20
2019-05-14T06:24:39.694Z,3.63
2019-05-14T06:27:09.366Z,2.97
2019-05-14T06:29:39.527Z,2.90
2019-05-14T06:32:09.303Z,3.17
2019-05-14T06:34:38.639Z,2.90
2019-05-14T06:37:08.445Z,2.83
2019-05-14T06:39:39.083Z,3.23
2019-05-14T06:42:09.178Z,2.60
2019-05-14T06:44:38.665Z,2.60
2019-05-14T06:47:09.263Z,2.47
2019-05-14T06:49:38.843Z,3.03
2019-05-14T06:52:08.672Z,2.90
2019-05-14T06:54:38.906Z,2.40
2019-05-14T06:57:09.072Z,2.30
2019-05-14T06:59:38.566Z,2.03
2019-05-14T07:02:08.931Z,2.53
2019-05-14T07:04:39.432Z,2.57
2019-05-14T07:07:09.002Z,2.23
2019-05-14T07:09:38.581Z,2.40
2019-05-14T07:12:09.153Z,2.40
2019-05-14T07:14:39.006Z,2.90
2019-05-14T07:17:09.266Z,2.10
2019-05-14T07:19:38.755Z,1.60
2019-05-14T07:22:08.900Z,2.10
2019-05-14T07:24:40.628Z,3.90
2019-05-14T07:27:09.577Z,2.40
2019-05-14T07:29:39.074Z,2.30
2019-05-14T07:32:08.958Z,2.50
2019-05-14T07:34:39.113Z,2.50
2019-05-14T07:37:09.489Z,2.80
2019-05-14T07:39:39.770Z,2.40
2019-05-14T07:42:09.595Z,2.70
2019-05-14T07:44:39.305Z,2.13
2019-05-14T07:47:08.516Z,2.20
2019-05-14T07:49:38.552Z,2.83
2019-05-14T07:52:09.402Z,2.10
2019-05-14T07:54:39.153Z,2.63
2019-05-14T07:57:08.916Z,2.73
2019-05-14T07:59:38.304Z,2.40
2019-05-14T08:02:09.382Z,3.00
2019-05-14T08:04:38.555Z,2.43
2019-05-14T08:07:09.014Z,2.70
2019-05-14T08:09:58.389Z,3.00
2019-05-14T08:12:28.540Z,2.33
2019-05-14T08:15:14.106Z,3.20
2019-05-14T08:17:29.070Z,3.03
2019-05-14T08:19:58.416Z,2.73
2019-05-14T08:22:29.147Z,2.20
2019-05-14T08:24:58.489Z,2.93
2019-05-14T08:27:30.935Z,2.40
2019-05-14T08:29:59.020Z,2.83
2019-05-14T08:32:28.507Z,2.73
2019-05-14T08:34:58.427Z,2.90
2019-05-14T08:37:28.084Z,2.57
2019-05-14T08:39:58.905Z,2.83
2019-05-14T08:42:29.072Z,2.90
2019-05-14T08:44:59.289Z,2.57
2019-05-14T08:47:29.284Z,2.47
2019-05-14T08:49:59.992Z,2.63
2019-05-14T08:52:35.130Z,2.80
2019-05-14T08:55:10.152Z,2.80
2019-05-14T08:57:38.496Z,3.00
2019-05-14T09:00:13.851Z,2.50
2019-05-14T09:02:39.426Z,2.40
2019-05-14T09:05:10.293Z,2.60
2019-05-14T09:07:40.061Z,2.23
2019-05-14T09:10:09.843Z,2.30
2019-05-14T09:12:39.699Z,2.37
2019-05-14T09:15:10.093Z,2.30
2019-05-14T09:17:39.776Z,2.30
2019-05-14T09:20:12.914Z,2.10
2019-05-14T09:22:42.221Z,2.40
2019-05-14T09:25:11.579Z,2.13
2019-05-14T09:27:40.786Z,2.17
2019-05-14T09:30:13.409Z,1.83
2019-05-14T09:32:42.644Z,1.87
2019-05-14T09:35:12.043Z,1.40
2019-05-14T09:37:41.305Z,2.10
2019-05-14T09:40:10.897Z,2.30
2019-05-14T09:42:40.080Z,1.70
2019-05-14T09:45:11.464Z,2.30
2019-05-14T09:47:41.092Z,2.00
2019-05-14T09:50:18.653Z,2.27
2019-05-14T09:52:43.262Z,2.13
2019-05-14T09:55:12.480Z,2.87
2019-05-14T09:57:41.797Z,1.77
2019-05-14T10:00:14.595Z,1.70
2019-05-14T10:06:04.480Z,1.77
2019-05-14T10:08:33.641Z,1.93
2019-05-14T10:11:03.419Z,2.10
2019-05-14T10:13:32.713Z,2.17
2019-05-14T10:16:02.419Z,1.80
2019-05-14T10:18:31.622Z,2.00
2019-05-14T10:21:00.922Z,2.67
2019-05-14T10:23:30.142Z,1.90
2019-05-14T10:25:59.338Z,2.07
2019-05-14T10:28:29.583Z,2.13
2019-05-14T10:31:01.838Z,2.10
2019-05-14T10:33:30.327Z,2.10
2019-05-14T10:35:59.689Z,2.07
2019-05-14T10:38:29.686Z,2.60
2019-05-14T10:40:58.885Z,2.30
2019-05-14T10:43:28.868Z,2.37
2019-05-14T10:45:58.343Z,2.40
2019-05-14T10:48:29.147Z,2.23
2019-05-14T10:51:03.264Z,2.77
2019-05-14T10:53:29.877Z,2.17
2019-05-14T10:55:59.080Z,2.07
2019-05-14T10:58:29.153Z,2.40
2019-05-14T11:00:59.170Z,2.73
2019-05-14T11:03:30.038Z,2.13
2019-05-14T11:05:59.321Z,2.80
2019-05-14T11:08:29.652Z,2.20
2019-05-14T11:11:03.746Z,2.40
2019-05-14T11:13:30.466Z,2.40
2019-05-14T11:15:59.931Z,2.20
2019-05-14T11:18:29.462Z,2.50
2019-05-14T11:21:17.944Z,2.57
2019-05-14T11:23:30.172Z,2.50
2019-05-14T11:25:59.412Z,2.40
2019-05-14T11:28:28.951Z,2.80
2019-05-14T11:30:58.074Z,2.93
2019-05-14T11:33:29.535Z,2.20
2019-05-14T11:36:00.428Z,2.50
2019-05-14T11:38:37.139Z,2.13
2019-05-14T11:41:01.339Z,2.60
2019-05-14T11:43:30.640Z,2.13
2019-05-14T11:45:59.841Z,2.23
2019-05-14T11:48:29.029Z,2.40
2019-05-14T11:50:59.286Z,2.40
2019-05-14T11:53:29.453Z,2.53
2019-05-14T11:55:58.822Z,2.60
2019-05-14T11:58:29.441Z,2.67
2019-05-14T12:00:58.760Z,2.30
2019-05-14T12:03:28.653Z,2.87
2019-05-14T12:05:58.633Z,2.67
2019-05-14T12:08:28.895Z,2.93
2019-05-14T12:10:59.274Z,2.93
2019-05-14T12:13:32.680Z,2.57
2019-05-14T12:15:59.807Z,2.40
2019-05-14T12:18:29.303Z,2.80
2019-05-14T12:20:59.326Z,2.33
2019-05-14T12:23:29.806Z,2.90
2019-05-14T12:25:59.931Z,2.70
2019-05-14T12:28:29.407Z,2.60
2019-05-14T12:30:58.543Z,2.70
2019-05-14T12:33:30.461Z,2.80
2019-05-14T12:36:00.514Z,2.57
2019-05-14T12:38:30.571Z,2.90
2019-05-14T12:40:59.741Z,2.90
2019-05-14T12:43:29.003Z,2.90
2019-05-14T12:45:59.649Z,2.77
2019-05-14T12:48:29.828Z,2.90
2019-05-14T12:50:59.575Z,2.60
2019-05-14T12:53:29.239Z,2.60
2019-05-14T12:55:58.462Z,2.60
2019-05-14T12:58:28.586Z,3.00
2019-05-14T13:00:59.546Z,2.83
2019-05-14T13:03:28.871Z,2.47
2019-05-14T13:05:58.528Z,3.00
2019-05-14T13:08:28.007Z,3.03
2019-05-14T13:10:58.685Z,3.10
2019-05-14T13:13:29.043Z,3.23
2019-05-14T13:15:59.445Z,2.90
2019-05-14T13:18:29.150Z,2.90
2019-05-14T13:20:59.052Z,2.50
2019-05-14T13:23:29.217Z,3.23
2019-05-14T13:25:59.604Z,2.97
2019-05-14T13:28:29.424Z,2.50
2019-05-14T13:31:01.902Z,3.10
2019-05-14T13:33:31.094Z,3.10
2019-05-14T13:36:00.398Z,3.00
2019-05-14T13:38:29.591Z,3.07
2019-05-14T13:40:59.441Z,2.47
2019-05-14T13:43:30.455Z,2.70
2019-05-14T13:46:00.075Z,2.83
2019-05-14T13:48:29.838Z,2.73
2019-05-14T13:50:59.661Z,3.30
2019-05-14T13:53:29.625Z,3.10
2019-05-14T13:55:59.481Z,3.57
2019-05-14T13:58:28.827Z,3.00
2019-05-14T14:00:59.123Z,3.10
2019-05-14T14:03:29.604Z,3.03
2019-05-14T14:06:01.492Z,3.27
2019-05-14T14:08:30.794Z,3.07
2019-05-14T14:11:02.826Z,3.07
2019-05-14T14:13:31.441Z,3.03
2019-05-14T14:16:01.252Z,3.67
2019-05-14T14:18:30.959Z,3.27
2019-05-14T14:21:00.143Z,3.77
2019-05-14T14:23:31.267Z,3.23
2019-05-14T14:26:00.725Z,3.17
2019-05-14T14:28:30.053Z,3.50
2019-05-14T14:31:00.450Z,3.10
2019-05-14T14:33:29.639Z,3.50
2019-05-14T14:35:58.799Z,3.30
2019-05-14T14:38:29.629Z,3.33
2019-05-14T14:40:58.768Z,3.70
2019-05-14T14:43:29.547Z,3.43
2019-05-14T14:45:59.347Z,3.30
2019-05-14T14:48:30.428Z,3.07
2019-05-14T14:51:00.227Z,3.10
2019-05-14T14:53:51.446Z,3.53
2019-05-14T14:56:03.937Z,3.37
2019-05-14T14:58:33.156Z,3.30
2019-05-14T15:01:02.374Z,3.70
2019-05-14T15:03:31.700Z,3.83
2019-05-14T15:06:00.879Z,2.80
2019-05-14T15:08:30.128Z,3.40
2019-05-14T15:10:59.989Z,3.50
2019-05-14T15:13:29.237Z,3.77
2019-05-14T15:16:01.080Z,3.57
2019-05-14T15:18:29.473Z,3.43
2019-05-14T15:21:00.974Z,3.13
2019-05-14T15:23:31.994Z,3.50
2019-05-14T15:26:01.335Z,3.43
2019-05-14T15:28:31.011Z,3.23
2019-05-14T15:31:00.966Z,3.03
2019-05-14T15:33:30.260Z,2.80
2019-05-14T15:35:59.482Z,3.60
2019-05-14T15:38:31.849Z,3.43
2019-05-14T15:41:01.034Z,3.97
2019-05-14T15:43:30.271Z,3.43
2019-05-14T15:45:59.557Z,3.20
2019-05-14T15:48:28.806Z,3.30
2019-05-14T15:51:00.002Z,3.80
2019-05-14T15:53:29.319Z,3.57
2019-05-14T15:55:58.602Z,3.23
2019-05-14T15:58:30.305Z,4.13
2019-05-14T16:01:01.118Z,3.60
2019-05-14T16:03:31.533Z,4.13
2019-05-14T16:06:00.442Z,3.70
2019-05-14T16:08:29.826Z,3.80
2019-05-14T16:11:00.310Z,3.70
2019-05-14T16:13:30.007Z,4.00
2019-05-14T16:15:59.361Z,3.57
2019-05-14T16:18:29.120Z,3.93
2019-05-14T16:20:59.362Z,3.33
2019-05-14T16:23:33.638Z,4.00
2019-05-14T16:26:02.763Z,3.43
2019-05-14T16:28:31.924Z,3.57
2019-05-14T16:31:01.677Z,3.63
2019-05-14T16:33:30.888Z,3.83
2019-05-14T16:36:00.019Z,3.73
2019-05-14T16:38:29.163Z,4.27
2019-05-14T16:40:59.631Z,3.40
2019-05-14T16:43:32.121Z,3.40
2019-05-14T16:46:00.360Z,4.03
2019-05-14T16:48:29.535Z,3.77
2019-05-14T16:50:58.650Z,3.50
2019-05-14T16:53:28.805Z,3.50
2019-05-14T16:55:58.156Z,3.60
2019-05-14T16:58:29.246Z,3.33
2019-05-14T17:00:58.970Z,3.53
2019-05-14T17:03:29.800Z,3.47
2019-05-14T17:05:59.659Z,3.40
2019-05-14T17:08:28.844Z,3.43
2019-05-14T17:10:59.043Z,3.33
2019-05-14T17:13:28.623Z,3.63
2019-05-14T17:15:58.896Z,3.10
2019-05-14T17:18:28.774Z,3.53
2019-05-14T17:20:59.468Z,3.60
2019-05-14T17:23:28.775Z,4.43
2019-05-14T17:25:58.567Z,4.90
2019-05-14T17:28:28.615Z,3.90
2019-05-14T17:30:58.666Z,3.97
2019-05-14T17:33:29.164Z,3.33
2019-05-14T17:35:58.740Z,3.10
2019-05-14T17:38:29.267Z,3.27
2019-05-14T17:40:59.734Z,3.73
2019-05-14T17:43:29.200Z,3.87
2019-05-14T17:45:58.855Z,4.27
2019-05-14T17:48:28.580Z,3.30
2019-05-14T17:50:59.028Z,3.00
2019-05-14T17:53:29.092Z,3.60
2019-05-14T17:55:59.351Z,3.40
2019-05-14T17:58:28.793Z,3.30
2019-05-14T18:00:58.235Z,3.50
2019-05-14T18:03:29.136Z,3.37
2019-05-14T18:05:59.029Z,3.23
2019-05-14T18:08:29.970Z,3.73
2019-05-14T18:11:01.556Z,3.63
2019-05-14T18:13:30.194Z,3.33
2019-05-14T18:16:00.088Z,3.60
2019-05-14T18:18:29.265Z,3.40
2019-05-14T18:20:58.490Z,2.97
2019-05-14T18:23:28.985Z,3.20
2019-05-14T18:26:04.780Z,3.03
2019-05-14T18:28:30.859Z,3.50
2019-05-14T18:30:59.956Z,3.30
2019-05-14T18:33:31.142Z,2.90
2019-05-14T18:36:00.245Z,3.50
2019-05-14T18:38:30.138Z,3.50
2019-05-14T18:40:59.364Z,3.30
2019-05-14T18:43:29.161Z,3.27
2019-05-14T18:45:58.718Z,3.03
2019-05-14T18:48:28.972Z,3.27
2019-05-14T18:50:59.256Z,3.17
2019-05-14T18:53:28.968Z,3.20
2019-05-14T18:55:59.729Z,3.00
2019-05-14T18:58:29.441Z,3.50
2019-05-14T19:00:58.738Z,3.00
2019-05-14T19:03:28.684Z,2.97
2019-05-14T19:05:58.858Z,3.40
2019-05-14T19:08:28.829Z,3.00
2019-05-14T19:10:59.401Z,3.20
2019-05-14T19:13:29.532Z,2.90
2019-05-14T19:15:59.180Z,3.20
2019-05-14T19:18:28.919Z,3.27
2019-05-14T19:20:59.182Z,3.30
2019-05-14T19:23:29.061Z,3.30
2019-05-14T19:25:59.266Z,3.47
2019-05-14T19:28:28.782Z,3.07
2019-05-14T19:30:59.550Z,4.63
2019-05-14T19:33:28.977Z,3.37
2019-05-14T19:35:58.544Z,3.07
2019-05-14T19:38:27.682Z,3.20
2019-05-14T19:40:56.872Z,3.10
2019-05-14T19:43:26.003Z,3.30
2019-05-14T19:45:55.139Z,3.40
2019-05-14T19:48:24.307Z,3.53
2019-05-14T19:50:53.463Z,3.53
2019-05-14T19:53:24.403Z,3.60
2019-05-14T19:55:53.558Z,3.50
2019-05-14T19:58:22.788Z,3.10
2019-05-14T20:00:52.091Z,3.10
2019-05-14T20:03:21.262Z,4.27
2019-05-14T20:05:50.462Z,3.77
2019-05-14T20:08:19.740Z,3.30
2019-05-14T20:10:49.190Z,4.13
2019-05-14T20:13:19.556Z,3.90
2019-05-14T20:15:49.633Z,4.20
2019-05-14T20:18:18.828Z,3.90
2019-05-14T20:20:49.236Z,3.70
2019-05-14T20:23:18.656Z,4.53
2019-05-14T20:25:48.183Z,4.30
2019-05-14T20:28:18.984Z,4.03
2019-05-14T20:30:49.286Z,4.10
2019-05-14T20:33:19.184Z,4.07
2019-05-14T20:35:48.702Z,4.43
2019-05-14T20:38:19.414Z,4.60
2019-05-14T20:40:48.908Z,5.00
2019-05-14T20:43:18.812Z,4.77
2019-05-14T20:45:48.829Z,4.40
2019-05-14T20:48:18.957Z,5.63
2019-05-14T20:50:48.379Z,5.00
2019-05-14T20:53:18.607Z,4.60
2019-05-14T20:55:48.128Z,5.13
2019-05-14T20:58:19.887Z,5.33
2019-05-14T21:00:48.565Z,4.67
2019-05-14T21:03:18.679Z,4.60
2019-05-14T21:05:49.199Z,4.97
2019-05-14T21:08:18.908Z,4.50
2019-05-14T21:10:49.455Z,4.93
2019-05-14T21:13:19.222Z,4.83
2019-05-14T21:15:48.975Z,5.00
2019-05-14T21:18:18.941Z,4.47
2019-05-14T21:20:48.955Z,5.07
2019-05-14T21:23:18.469Z,4.93
2019-05-14T21:25:48.370Z,5.33
2019-05-14T21:28:17.893Z,4.70
2019-05-14T21:30:48.600Z,5.20
2019-05-14T21:33:17.993Z,4.77
2019-05-14T21:35:48.490Z,4.40
2019-05-14T21:38:19.125Z,4.63
2019-05-14T21:40:49.987Z,4.87
2019-05-14T21:43:19.360Z,4.50
2019-05-14T21:45:49.010Z,4.90
2019-05-14T21:48:19.966Z,4.03
2019-05-14T21:50:49.614Z,5.10
2019-05-14T21:53:19.181Z,5.27
2019-05-14T21:55:48.452Z,5.53
2019-05-14T21:58:19.428Z,4.50
2019-05-14T22:00:51.696Z,4.43
2019-05-14T22:03:21.021Z,4.43
2019-05-14T22:05:51.515Z,4.33
2019-05-14T22:08:21.147Z,4.77
2019-05-14T22:10:50.400Z,4.67
2019-05-14T22:13:19.724Z,4.07
2019-05-14T22:15:49.451Z,4.07
2019-05-14T22:18:20.797Z,3.97
2019-05-14T22:20:50.388Z,4.13
2019-05-14T22:23:21.262Z,3.83
2019-05-14T22:25:50.482Z,4.00
2019-05-14T22:28:19.735Z,4.00
2019-05-14T22:30:48.980Z,3.93
2019-05-14T22:33:19.078Z,3.67
2019-05-14T22:35:48.923Z,3.87
2019-05-14T22:38:20.208Z,4.03
2019-05-14T22:40:49.084Z,4.27
2019-05-14T22:43:18.416Z,4.03
2019-05-14T22:45:48.076Z,3.83
2019-05-14T22:48:18.620Z,4.07
2019-05-14T22:50:48.580Z,4.27
2019-05-14T22:53:18.876Z,4.33
2019-05-14T22:55:49.148Z,4.30
2019-05-14T22:58:25.689Z,4.60
2019-05-14T23:01:02.330Z,4.40
2019-05-14T23:03:21.118Z,4.40
2019-05-14T23:05:51.034Z,4.40
2019-05-14T23:08:20.292Z,4.03
2019-05-14T23:10:49.533Z,4.23
2019-05-14T23:13:18.845Z,3.97
2019-05-14T23:15:48.223Z,4.13
2019-05-14T23:18:18.173Z,4.90
2019-05-14T23:20:49.245Z,4.43
2019-05-14T23:23:18.789Z,4.80
2019-05-14T23:25:48.030Z,4.60
2019-05-14T23:28:19.212Z,4.60
2019-05-14T23:30:48.215Z,4.20
2019-05-14T23:33:19.153Z,4.57
2019-05-14T23:35:48.546Z,4.17
2019-05-14T23:38:19.041Z,4.93
2019-05-14T23:40:49.339Z,4.00
2019-05-14T23:43:19.026Z,4.07
2019-05-14T23:45:48.247Z,4.60
2019-05-14T23:48:18.891Z,4.00
2019-05-14T23:50:48.838Z,4.50
2019-05-14T23:53:18.647Z,4.27
2019-05-14T23:55:48.211Z,4.70
2019-05-14T23:58:20.493Z,4.73
